Time;durP1;ratioP1;P1;durP2;ratioP2;P2;SDS_P1;SDS_P2;PMS_P1;PMS_P2;Temp;Humidity;BMP_temperature;BMP_pressure;BME280_temperature;BME280_humidity;BME280_pressure;Samples;Min_cycle;Max_cycle;Signal;HPM_P1;HPM_P2
2022/08/29 00:01:10;;;;;;;4.30;1.90;;;;;;;;;;5099219;28;20048;-74
2022/08/29 00:03:37;;;;;;;3.67;1.55;;;;;;;;;;5103313;28;20203;-75
2022/08/29 00:06:09;;;;;;;5.00;1.80;;;;;;;;;;5099861;28;20042;-75
2022/08/29 00:08:36;;;;;;;5.00;1.55;;;;;;;;;;5086765;28;20051;-74
2022/08/29 00:11:06;;;;;;;3.90;1.70;;;;;;;;;;5103463;28;20152;-74
2022/08/29 00:13:34;;;;;;;3.10;1.65;;;;;;;;;;5101870;28;20067;-73
2022/08/29 00:16:02;;;;;;;4.13;1.63;;;;;;;;;;5098312;28;20097;-73
2022/08/29 00:18:37;;;;;;;4.13;1.90;;;;;;;;;;5104745;28;20860;-73
2022/08/29 00:21:06;;;;;;;3.28;1.80;;;;;;;;;;5098435;28;20155;-74
2022/08/29 00:23:33;;;;;;;2.65;1.73;;;;;;;;;;5106554;28;20024;-76
2022/08/29 00:26:00;;;;;;;5.45;1.63;;;;;;;;;;5105084;28;20048;-73
2022/08/29 00:28:27;;;;;;;2.70;1.80;;;;;;;;;;5097821;28;20049;-75
2022/08/29 00:30:55;;;;;;;5.35;1.58;;;;;;;;;;5105044;28;20049;-76
2022/08/29 00:33:23;;;;;;;1.65;1.20;;;;;;;;;;5099547;28;20481;-74
2022/08/29 00:35:50;;;;;;;1.35;0.98;;;;;;;;;;5106644;28;20083;-74
2022/08/29 00:38:17;;;;;;;2.80;1.10;;;;;;;;;;5100216;28;20075;-74
2022/08/29 00:40:55;;;;;;;1.88;1.30;;;;;;;;;;5099097;28;20052;-75
2022/08/29 00:43:33;;;;;;;1.33;1.13;;;;;;;;;;5100100;28;20108;-74
2022/08/29 00:46:19;;;;;;;2.15;1.38;;;;;;;;;;5106279;28;20096;-74
2022/08/29 00:48:49;;;;;;;4.20;1.58;;;;;;;;;;5099178;28;20040;-75
2022/08/29 00:51:21;;;;;;;3.65;1.85;;;;;;;;;;5105597;28;20075;-74
2022/08/29 00:53:52;;;;;;;6.03;1.67;;;;;;;;;;5100902;28;20078;-76
2022/08/29 00:56:22;;;;;;;3.17;1.77;;;;;;;;;;5097698;28;20112;-75
2022/08/29 00:58:58;;;;;;;3.53;1.67;;;;;;;;;;5095871;28;20049;-76
2022/08/29 01:01:25;;;;;;;2.45;1.67;;;;;;;;;;5093907;28;20151;-75
2022/08/29 01:03:53;;;;;;;6.43;1.77;;;;;;;;;;5100520;28;20062;-75
2022/08/29 01:06:21;;;;;;;3.83;1.77;;;;;;;;;;5092940;28;20052;-73
2022/08/29 01:08:50;;;;;;;8.95;1.77;;;;;;;;;;5099584;28;20056;-74
2022/08/29 01:14:10;;;;;;;2.97;1.80;;;;;;;;;;5093652;28;20049;-74
2022/08/29 01:16:41;;;;;;;3.40;1.80;;;;;;;;;;5103307;28;20092;-75
2022/08/29 01:19:16;;;;;;;3.25;1.77;;;;;;;;;;5103390;28;20675;-74
2022/08/29 01:21:52;;;;;;;3.05;2.00;;;;;;;;;;5094047;28;20107;-76
2022/08/29 01:24:40;;;;;;;3.50;1.90;;;;;;;;;;5095040;28;20104;-74
2022/08/29 01:27:08;;;;;;;2.55;1.70;;;;;;;;;;5102382;28;20055;-73
2022/08/29 01:29:43;;;;;;;5.88;1.50;;;;;;;;;;5085064;28;20041;-73
2022/08/29 01:32:11;;;;;;;2.88;1.70;;;;;;;;;;5096771;28;20051;-73
2022/08/29 01:34:42;;;;;;;4.57;1.60;;;;;;;;;;5096111;28;20044;-74
2022/08/29 01:37:11;;;;;;;4.95;1.90;;;;;;;;;;5082499;28;20048;-74
2022/08/29 01:39:40;;;;;;;5.97;1.88;;;;;;;;;;5096503;28;20053;-72
2022/08/29 01:42:10;;;;;;;2.50;1.60;;;;;;;;;;5095356;28;20052;-74
2022/08/29 01:44:38;;;;;;;2.13;1.55;;;;;;;;;;5097714;28;20036;-74
2022/08/29 01:47:10;;;;;;;3.08;1.73;;;;;;;;;;5080828;28;20059;-73
2022/08/29 01:49:38;;;;;;;2.53;1.60;;;;;;;;;;5092125;28;20045;-75
2022/08/29 01:52:08;;;;;;;2.67;1.75;;;;;;;;;;5078641;28;20052;-74
2022/08/29 01:54:35;;;;;;;2.95;1.85;;;;;;;;;;5093126;28;20037;-74
2022/08/29 01:57:04;;;;;;;3.60;1.73;;;;;;;;;;5093323;28;20044;-74
2022/08/29 01:59:35;;;;;;;3.33;1.58;;;;;;;;;;5097206;28;20108;-73
2022/08/29 02:02:15;;;;;;;5.00;1.80;;;;;;;;;;5077279;28;20882;-73
2022/08/29 02:04:44;;;;;;;5.32;1.85;;;;;;;;;;5081657;28;20256;-75
2022/08/29 02:07:11;;;;;;;4.43;1.60;;;;;;;;;;5087498;28;20508;-74
2022/08/29 02:09:40;;;;;;;4.72;2.05;;;;;;;;;;5087011;28;20048;-75
2022/08/29 02:12:12;;;;;;;3.30;1.90;;;;;;;;;;5085410;28;20049;-74
2022/08/29 02:14:40;;;;;;;3.03;1.70;;;;;;;;;;5088020;28;20037;-74
2022/08/29 02:17:07;;;;;;;2.63;1.88;;;;;;;;;;5092870;28;20136;-73
2022/08/29 02:19:36;;;;;;;2.70;1.60;;;;;;;;;;5084557;28;20051;-74
2022/08/29 02:22:06;;;;;;;6.32;1.70;;;;;;;;;;5094185;28;20064;-75
2022/08/29 02:24:33;;;;;;;2.95;1.50;;;;;;;;;;5067435;28;20049;-75
2022/08/29 02:27:00;;;;;;;3.38;1.70;;;;;;;;;;5092805;28;20126;-73
2022/08/29 02:29:28;;;;;;;4.90;1.30;;;;;;;;;;5090473;28;20051;-73
2022/08/29 02:32:03;;;;;;;4.30;1.25;;;;;;;;;;5095495;28;20041;-73
2022/08/29 02:34:32;;;;;;;6.38;1.52;;;;;;;;;;5087799;28;20882;-73
2022/08/29 02:36:59;;;;;;;3.10;1.90;;;;;;;;;;5090326;28;20099;-74
2022/08/29 02:39:27;;;;;;;2.22;1.70;;;;;;;;;;5096558;28;20044;-75
2022/08/29 02:41:54;;;;;;;4.22;1.88;;;;;;;;;;5097376;28;20431;-74
2022/08/29 02:44:23;;;;;;;3.67;1.80;;;;;;;;;;5093411;28;20052;-74
2022/08/29 02:46:50;;;;;;;2.45;1.52;;;;;;;;;;5089599;28;20087;-74
2022/08/29 02:49:18;;;;;;;6.30;1.88;;;;;;;;;;5095652;28;20040;-73
2022/08/29 02:51:45;;;;;;;3.00;1.52;;;;;;;;;;5091496;28;20994;-74
2022/08/29 02:54:12;;;;;;;1.65;1.45;;;;;;;;;;5096589;28;20131;-75
2022/08/29 02:56:40;;;;;;;4.03;1.60;;;;;;;;;;5092206;28;20092;-75
2022/08/29 02:59:07;;;;;;;3.17;1.88;;;;;;;;;;5085798;28;21110;-75
2022/08/29 03:01:37;;;;;;;2.75;1.50;;;;;;;;;;5100768;28;20084;-74
2022/08/29 03:04:06;;;;;;;2.92;1.50;;;;;;;;;;5099442;28;20052;-74
2022/08/29 03:06:33;;;;;;;3.35;1.60;;;;;;;;;;5101023;28;20032;-74
2022/08/29 03:09:01;;;;;;;4.47;1.73;;;;;;;;;;5095077;28;20045;-74
2022/08/29 03:11:28;;;;;;;4.55;2.45;;;;;;;;;;5097612;28;20844;-75
2022/08/29 03:14:01;;;;;;;2.28;1.40;;;;;;;;;;5096415;28;20127;-74
2022/08/29 03:16:29;;;;;;;7.65;1.98;;;;;;;;;;5085998;28;20245;-74
2022/08/29 03:18:56;;;;;;;4.65;2.25;;;;;;;;;;5098783;28;20051;-75
2022/08/29 03:21:27;;;;;;;5.03;1.83;;;;;;;;;;5097826;28;20243;-74
2022/08/29 03:23:58;;;;;;;7.28;2.10;;;;;;;;;;5093520;28;20053;-75
2022/08/29 03:26:25;;;;;;;3.92;1.95;;;;;;;;;;5093021;28;20156;-75
2022/08/29 03:28:53;;;;;;;2.83;1.83;;;;;;;;;;5098780;28;20108;-73
2022/08/29 03:31:20;;;;;;;2.95;1.90;;;;;;;;;;5096445;28;20057;-73
2022/08/29 03:33:48;;;;;;;4.20;1.90;;;;;;;;;;5095746;28;20043;-74
2022/08/29 03:36:15;;;;;;;7.30;2.10;;;;;;;;;;5097543;28;20057;-75
2022/08/29 03:38:43;;;;;;;3.63;1.77;;;;;;;;;;5097705;28;20058;-74
2022/08/29 03:41:10;;;;;;;6.35;2.15;;;;;;;;;;5087031;28;20051;-75
2022/08/29 03:43:37;;;;;;;4.03;1.80;;;;;;;;;;5089679;28;20052;-74
2022/08/29 03:46:07;;;;;;;4.78;1.95;;;;;;;;;;5097833;28;20757;-75
2022/08/29 03:48:34;;;;;;;6.00;1.95;;;;;;;;;;5092419;28;20064;-74
2022/08/29 03:51:02;;;;;;;3.00;1.80;;;;;;;;;;5093230;28;20052;-74
2022/08/29 03:53:31;;;;;;;4.72;1.70;;;;;;;;;;5094264;28;20109;-75
2022/08/29 03:55:58;;;;;;;7.47;2.10;;;;;;;;;;5092585;28;20035;-73
2022/08/29 03:58:28;;;;;;;4.00;1.80;;;;;;;;;;5095368;28;20053;-74
2022/08/29 04:00:55;;;;;;;4.60;2.00;;;;;;;;;;5095215;28;20164;-74
2022/08/29 04:03:23;;;;;;;5.82;1.98;;;;;;;;;;5093724;28;20036;-74
2022/08/29 04:05:57;;;;;;;4.22;1.73;;;;;;;;;;5097703;28;20033;-74
2022/08/29 04:08:27;;;;;;;3.17;1.70;;;;;;;;;;5098667;28;20426;-74
2022/08/29 04:10:57;;;;;;;5.22;1.67;;;;;;;;;;5102060;28;20062;-73
2022/08/29 04:13:27;;;;;;;2.45;1.70;;;;;;;;;;5103620;28;20063;-73
2022/08/29 04:15:57;;;;;;;7.22;2.33;;;;;;;;;;5102795;28;20048;-74
2022/08/29 04:18:28;;;;;;;7.90;1.80;;;;;;;;;;5091554;28;20059;-74
2022/08/29 04:21:00;;;;;;;7.63;1.92;;;;;;;;;;5099989;28;20052;-74
2022/08/29 04:23:28;;;;;;;2.73;1.90;;;;;;;;;;5102078;28;20057;-75
2022/08/29 04:25:58;;;;;;;2.78;1.40;;;;;;;;;;5094821;28;20283;-75
2022/08/29 04:28:45;;;;;;;5.32;1.88;;;;;;;;;;5104732;28;20043;-74
2022/08/29 04:31:18;;;;;;;4.03;2.15;;;;;;;;;;5091795;28;20052;-75
2022/08/29 04:33:49;;;;;;;5.07;1.65;;;;;;;;;;5098296;28;20062;-74
2022/08/29 04:36:17;;;;;;;3.60;1.77;;;;;;;;;;5098191;28;20106;-74
2022/08/29 04:38:44;;;;;;;4.93;1.95;;;;;;;;;;5099961;28;20052;-74
2022/08/29 04:41:14;;;;;;;6.35;1.58;;;;;;;;;;5093240;28;20752;-75
2022/08/29 04:43:45;;;;;;;4.32;1.65;;;;;;;;;;5098272;28;20067;-74
2022/08/29 04:46:15;;;;;;;4.05;1.73;;;;;;;;;;5099424;28;20053;-74
2022/08/29 04:48:51;;;;;;;3.95;1.73;;;;;;;;;;5100285;28;20041;-74
2022/08/29 04:51:18;;;;;;;9.02;2.03;;;;;;;;;;5098159;28;20053;-75
2022/08/29 04:53:45;;;;;;;5.80;2.08;;;;;;;;;;5098934;28;20108;-76
2022/08/29 04:56:12;;;;;;;6.80;2.03;;;;;;;;;;5096373;28;20030;-74
2022/08/29 04:58:46;;;;;;;4.15;1.70;;;;;;;;;;5106685;28;20049;-75
2022/08/29 05:01:17;;;;;;;2.60;1.55;;;;;;;;;;5103133;28;20053;-73
2022/08/29 05:03:45;;;;;;;2.90;1.40;;;;;;;;;;5100111;28;20064;-74
2022/08/29 05:06:13;;;;;;;2.47;1.33;;;;;;;;;;5102905;28;20048;-74
2022/08/29 05:08:41;;;;;;;6.90;1.90;;;;;;;;;;5097854;28;20041;-74
2022/08/29 05:11:11;;;;;;;4.25;1.77;;;;;;;;;;5104260;28;20065;-74
2022/08/29 05:13:41;;;;;;;7.00;2.03;;;;;;;;;;5100866;28;20071;-74
2022/08/29 05:16:09;;;;;;;6.30;1.67;;;;;;;;;;5101181;28;20057;-74
2022/08/29 05:18:37;;;;;;;4.70;1.77;;;;;;;;;;5104300;28;20053;-75
2022/08/29 05:21:08;;;;;;;5.70;1.90;;;;;;;;;;5083490;28;20045;-74
2022/08/29 05:23:35;;;;;;;3.10;1.50;;;;;;;;;;5101438;28;20071;-74
2022/08/29 05:26:03;;;;;;;4.88;1.60;;;;;;;;;;5100510;28;20037;-74
2022/08/29 05:28:31;;;;;;;3.92;1.65;;;;;;;;;;5091149;28;20117;-74
2022/08/29 05:30:59;;;;;;;3.08;1.90;;;;;;;;;;5098127;28;20051;-73
2022/08/29 05:33:31;;;;;;;2.50;1.42;;;;;;;;;;5099900;28;20033;-74
2022/08/29 05:35:58;;;;;;;5.40;1.98;;;;;;;;;;5094858;28;20028;-74
2022/08/29 05:38:25;;;;;;;5.53;1.80;;;;;;;;;;5104880;28;20049;-74
2022/08/29 05:40:52;;;;;;;3.60;2.13;;;;;;;;;;5099261;28;20068;-75
2022/08/29 05:43:19;;;;;;;3.25;1.50;;;;;;;;;;5101572;28;20048;-76
2022/08/29 05:45:46;;;;;;;6.13;1.92;;;;;;;;;;5102528;28;20055;-74
2022/08/29 05:48:16;;;;;;;4.78;2.00;;;;;;;;;;5099446;28;20108;-73
2022/08/29 05:50:44;;;;;;;3.70;1.73;;;;;;;;;;5094233;28;20102;-75
2022/08/29 05:53:15;;;;;;;7.75;1.98;;;;;;;;;;5103056;28;20096;-73
2022/08/29 05:55:43;;;;;;;3.58;1.70;;;;;;;;;;5098028;28;20029;-74
2022/08/29 05:58:11;;;;;;;13.50;2.10;;;;;;;;;;5081041;28;20045;-74
2022/08/29 06:00:42;;;;;;;4.35;2.10;;;;;;;;;;5100708;28;20052;-74
2022/08/29 06:03:10;;;;;;;9.02;2.40;;;;;;;;;;5081405;28;20623;-75
2022/08/29 06:05:49;;;;;;;4.07;2.20;;;;;;;;;;5099783;28;20048;-75
2022/08/29 06:08:17;;;;;;;6.13;1.75;;;;;;;;;;5100135;28;20037;-74
2022/08/29 06:10:45;;;;;;;4.43;1.80;;;;;;;;;;5100809;28;20100;-75
2022/08/29 06:13:14;;;;;;;4.72;2.10;;;;;;;;;;5095782;28;20033;-76
2022/08/29 06:15:45;;;;;;;5.13;2.28;;;;;;;;;;5105367;28;20037;-77
2022/08/29 06:18:13;;;;;;;5.32;2.35;;;;;;;;;;5099316;28;20050;-76
2022/08/29 06:20:41;;;;;;;10.02;2.17;;;;;;;;;;5104970;28;20052;-76
2022/08/29 06:23:08;;;;;;;6.05;2.08;;;;;;;;;;5112932;28;20090;-76
2022/08/29 06:25:37;;;;;;;4.53;2.22;;;;;;;;;;5106956;28;20033;-77
2022/08/29 06:28:06;;;;;;;6.55;2.50;;;;;;;;;;5103100;28;20049;-78
2022/08/29 06:30:37;;;;;;;5.45;2.08;;;;;;;;;;5104231;28;20041;-77
2022/08/29 06:33:08;;;;;;;5.38;2.30;;;;;;;;;;5100745;28;20033;-75
2022/08/29 06:35:36;;;;;;;9.10;2.72;;;;;;;;;;5101770;28;20104;-76
2022/08/29 06:38:03;;;;;;;6.43;2.13;;;;;;;;;;5107643;28;20048;-76
2022/08/29 06:40:39;;;;;;;3.75;2.10;;;;;;;;;;5104561;28;20040;-74
2022/08/29 06:43:08;;;;;;;6.72;2.35;;;;;;;;;;5102206;28;20088;-75
2022/08/29 06:45:44;;;;;;;6.47;2.25;;;;;;;;;;5101661;28;20043;-73
2022/08/29 06:48:12;;;;;;;6.25;2.22;;;;;;;;;;5095819;28;20049;-74
2022/08/29 06:50:43;;;;;;;9.35;2.42;;;;;;;;;;5099309;28;20045;-74
2022/08/29 06:53:11;;;;;;;4.35;2.28;;;;;;;;;;5095088;28;20045;-75
2022/08/29 06:56:02;;;;;;;7.53;2.35;;;;;;;;;;5098440;28;20059;-74
2022/08/29 06:58:31;;;;;;;4.93;2.13;;;;;;;;;;5100050;28;20087;-77
2022/08/29 07:00:58;;;;;;;5.18;2.03;;;;;;;;;;5098606;28;20048;-77
2022/08/29 07:03:27;;;;;;;3.63;1.92;;;;;;;;;;5086898;28;20037;-77
2022/08/29 07:05:54;;;;;;;9.27;2.30;;;;;;;;;;5096227;28;20052;-76
2022/08/29 07:08:25;;;;;;;7.97;2.25;;;;;;;;;;5097518;28;20051;-75
2022/08/29 07:10:52;;;;;;;8.05;2.13;;;;;;;;;;5098485;28;20076;-74
2022/08/29 07:13:19;;;;;;;9.00;2.25;;;;;;;;;;5099298;28;20060;-74
2022/08/29 07:15:53;;;;;;;7.35;2.10;;;;;;;;;;5079674;28;20079;-76
2022/08/29 07:18:23;;;;;;;9.25;2.60;;;;;;;;;;5098534;28;20049;-74
2022/08/29 07:20:53;;;;;;;5.45;2.60;;;;;;;;;;5095404;28;20060;-75
2022/08/29 07:23:23;;;;;;;8.50;2.80;;;;;;;;;;5093669;28;20052;-78
2022/08/29 07:26:05;;;;;;;4.90;2.38;;;;;;;;;;5092110;28;20092;-76
2022/08/29 07:28:33;;;;;;;5.85;2.33;;;;;;;;;;5096471;28;20059;-77
2022/08/29 07:31:04;;;;;;;7.38;2.50;;;;;;;;;;5091335;28;20041;-72
2022/08/29 07:33:32;;;;;;;7.82;2.60;;;;;;;;;;5092849;28;20048;-75
2022/08/29 07:36:01;;;;;;;7.40;2.80;;;;;;;;;;5093480;28;20057;-76
2022/08/29 07:38:29;;;;;;;6.35;2.42;;;;;;;;;;5093438;28;20059;-75
2022/08/29 07:40:59;;;;;;;6.53;2.60;;;;;;;;;;5094504;28;20067;-74
2022/08/29 07:43:27;;;;;;;7.30;2.83;;;;;;;;;;5081034;28;20087;-75
2022/08/29 07:45:55;;;;;;;5.93;2.45;;;;;;;;;;5102341;28;20112;-75
2022/08/29 07:48:23;;;;;;;9.73;2.22;;;;;;;;;;5101118;28;20047;-75
2022/08/29 07:50:54;;;;;;;7.13;2.38;;;;;;;;;;5094863;28;20057;-75
2022/08/29 07:53:23;;;;;;;8.70;2.75;;;;;;;;;;5098140;28;20055;-76
2022/08/29 07:55:51;;;;;;;6.32;2.78;;;;;;;;;;5101099;28;20037;-74
2022/08/29 07:58:18;;;;;;;8.65;2.72;;;;;;;;;;5097982;28;20049;-73
2022/08/29 08:00:45;;;;;;;7.50;2.78;;;;;;;;;;5094040;28;20090;-75
2022/08/29 08:03:14;;;;;;;7.55;2.88;;;;;;;;;;5098386;28;20085;-75
2022/08/29 08:05:44;;;;;;;5.32;2.40;;;;;;;;;;5081379;28;20175;-77
2022/08/29 08:08:43;;;;;;;7.95;2.63;;;;;;;;;;5097026;28;20055;-74
2022/08/29 08:11:29;;;;;;;8.48;2.13;;;;;;;;;;5099017;28;20053;-76
2022/08/29 08:14:19;;;;;;;5.55;2.40;;;;;;;;;;5087517;28;20147;-75
2022/08/29 08:17:01;;;;;;;14.38;2.80;;;;;;;;;;5083256;28;20067;-73
2022/08/29 08:19:28;;;;;;;10.23;2.38;;;;;;;;;;5099094;28;20044;-72
2022/08/29 08:21:57;;;;;;;7.88;2.28;;;;;;;;;;5095024;28;20045;-74
2022/08/29 08:24:24;;;;;;;6.47;2.08;;;;;;;;;;5095040;28;21045;-74
2022/08/29 08:26:53;;;;;;;5.22;2.47;;;;;;;;;;5097859;28;20028;-75
2022/08/29 08:29:20;;;;;;;5.20;2.53;;;;;;;;;;5096493;28;20051;-74
2022/08/29 08:31:58;;;;;;;4.78;2.40;;;;;;;;;;5094053;28;20143;-75
2022/08/29 08:34:28;;;;;;;3.45;1.70;;;;;;;;;;5092514;28;20063;-74
2022/08/29 08:36:55;;;;;;;7.72;2.25;;;;;;;;;;5095295;28;20051;-74
2022/08/29 08:39:22;;;;;;;6.25;2.40;;;;;;;;;;5101770;28;20044;-73
2022/08/29 08:41:52;;;;;;;7.68;2.70;;;;;;;;;;5085192;28;20655;-74
2022/08/29 08:44:19;;;;;;;7.93;2.78;;;;;;;;;;5097761;28;20048;-75
2022/08/29 08:46:50;;;;;;;8.20;2.72;;;;;;;;;;5100991;28;20045;-74
2022/08/29 08:49:23;;;;;;;13.52;2.58;;;;;;;;;;5094141;28;20053;-74
2022/08/29 08:51:53;;;;;;;5.55;2.22;;;;;;;;;;5101231;28;22224;-73
2022/08/29 08:54:23;;;;;;;6.55;2.60;;;;;;;;;;5101519;28;20041;-75
2022/08/29 08:56:53;;;;;;;10.30;2.50;;;;;;;;;;5102061;28;20041;-74
2022/08/29 08:59:42;;;;;;;5.50;2.35;;;;;;;;;;5093974;28;20059;-73
2022/08/29 09:02:28;;;;;;;6.15;2.50;;;;;;;;;;5078006;28;20199;-73
2022/08/29 09:04:56;;;;;;;5.88;2.50;;;;;;;;;;5074375;28;20041;-73
2022/08/29 09:07:44;;;;;;;6.97;2.50;;;;;;;;;;5097764;28;20033;-73
2022/08/29 09:10:11;;;;;;;7.55;2.20;;;;;;;;;;5095061;28;20044;-74
2022/08/29 09:12:41;;;;;;;5.65;2.35;;;;;;;;;;5094786;28;20055;-73
2022/08/29 09:15:08;;;;;;;10.05;2.53;;;;;;;;;;5094331;28;20134;-73
2022/08/29 09:17:40;;;;;;;7.68;2.45;;;;;;;;;;5092336;28;20100;-72
2022/08/29 09:20:12;;;;;;;8.93;2.72;;;;;;;;;;5093539;28;20112;-73
2022/08/29 09:22:43;;;;;;;7.25;2.90;;;;;;;;;;5087078;28;20083;-71
2022/08/29 09:25:12;;;;;;;8.50;2.55;;;;;;;;;;5093805;28;20055;-73
2022/08/29 09:27:39;;;;;;;6.68;2.50;;;;;;;;;;5073074;28;20107;-73
2022/08/29 09:30:24;;;;;;;8.77;2.38;;;;;;;;;;5093500;28;20049;-74
2022/08/29 09:32:54;;;;;;;12.07;2.40;;;;;;;;;;5092292;28;20109;-73
2022/08/29 09:35:26;;;;;;;9.98;2.75;;;;;;;;;;5097837;28;20040;-73
2022/08/29 09:37:55;;;;;;;11.05;2.72;;;;;;;;;;5094883;28;20053;-72
2022/08/29 09:40:24;;;;;;;5.68;2.20;;;;;;;;;;5095816;28;20920;-73
2022/08/29 09:43:01;;;;;;;5.43;2.30;;;;;;;;;;5092714;28;20072;-72
2022/08/29 09:45:28;;;;;;;5.30;2.83;;;;;;;;;;5094353;28;20040;-73
2022/08/29 09:48:16;;;;;;;5.13;2.13;;;;;;;;;;5099208;28;20037;-74
2022/08/29 09:50:44;;;;;;;9.23;2.90;;;;;;;;;;5095981;28;21010;-74
2022/08/29 09:53:11;;;;;;;7.32;2.58;;;;;;;;;;5096760;28;20044;-73
2022/08/29 09:55:53;;;;;;;9.60;2.50;;;;;;;;;;5092436;28;20887;-73
2022/08/29 09:58:20;;;;;;;8.27;2.10;;;;;;;;;;5092135;28;20036;-74
2022/08/29 10:01:06;;;;;;;9.25;2.45;;;;;;;;;;5078352;28;20047;-73
2022/08/29 10:03:35;;;;;;;8.07;2.30;;;;;;;;;;5096987;28;20048;-74
2022/08/29 10:06:06;;;;;;;6.90;2.55;;;;;;;;;;5100522;28;20073;-73
2022/08/29 10:08:36;;;;;;;9.95;2.60;;;;;;;;;;5102968;28;20033;-74
2022/08/29 10:11:16;;;;;;;6.28;2.55;;;;;;;;;;5078211;28;20040;-75
2022/08/29 10:13:54;;;;;;;10.75;2.80;;;;;;;;;;5097696;28;20051;-73
2022/08/29 10:16:27;;;;;;;8.05;2.30;;;;;;;;;;5096354;28;20056;-73
2022/08/29 10:18:57;;;;;;;11.23;2.50;;;;;;;;;;5101345;28;20041;-74
2022/08/29 10:21:30;;;;;;;6.78;2.78;;;;;;;;;;5095410;28;20105;-74
2022/08/29 10:24:06;;;;;;;4.75;2.47;;;;;;;;;;5098480;28;20052;-73
2022/08/29 10:26:36;;;;;;;7.45;2.40;;;;;;;;;;5097348;28;20040;-75
2022/08/29 10:29:25;;;;;;;8.95;2.58;;;;;;;;;;5096127;28;20033;-75
2022/08/29 10:32:16;;;;;;;13.30;3.22;;;;;;;;;;5091526;28;20061;-73
2022/08/29 10:34:43;;;;;;;8.77;2.40;;;;;;;;;;5094005;28;20148;-73
2022/08/29 10:37:15;;;;;;;4.32;2.38;;;;;;;;;;5096939;28;20052;-76
2022/08/29 10:39:57;;;;;;;13.93;2.55;;;;;;;;;;5094051;28;20102;-75
2022/08/29 10:42:26;;;;;;;6.78;2.50;;;;;;;;;;5081702;28;20102;-75
2022/08/29 10:45:02;;;;;;;4.47;2.20;;;;;;;;;;5103390;28;20109;-75
2022/08/29 10:47:34;;;;;;;6.47;2.28;;;;;;;;;;5099206;28;20040;-76
2022/08/29 10:50:05;;;;;;;8.57;2.23;;;;;;;;;;5104617;28;20048;-73
2022/08/29 10:53:01;;;;;;;9.98;2.08;;;;;;;;;;5103766;28;20148;-76
2022/08/29 10:55:37;;;;;;;5.90;2.33;;;;;;;;;;5099025;28;20473;-76
2022/08/29 10:58:04;;;;;;;8.65;2.10;;;;;;;;;;5104379;28;20053;-76
2022/08/29 11:00:43;;;;;;;4.80;2.15;;;;;;;;;;5106672;28;20139;-75
2022/08/29 11:03:23;;;;;;;5.18;2.13;;;;;;;;;;5102853;28;20104;-74
2022/08/29 11:05:58;;;;;;;5.65;1.90;;;;;;;;;;5103691;28;20060;-75
2022/08/29 11:08:29;;;;;;;8.38;2.38;;;;;;;;;;5105640;28;20053;-74
2022/08/29 11:10:57;;;;;;;7.15;2.17;;;;;;;;;;5087922;28;20140;-75
2022/08/29 11:13:41;;;;;;;8.63;1.83;;;;;;;;;;5084059;28;20055;-73
2022/08/29 11:16:20;;;;;;;7.60;2.10;;;;;;;;;;5102175;28;20036;-77
2022/08/29 11:19:02;;;;;;;4.57;2.00;;;;;;;;;;5083839;28;20105;-74
2022/08/29 11:21:37;;;;;;;10.40;2.45;;;;;;;;;;5062582;28;20041;-73
2022/08/29 11:24:06;;;;;;;8.70;2.45;;;;;;;;;;5099208;28;20045;-75
2022/08/29 11:26:43;;;;;;;8.93;1.95;;;;;;;;;;5095114;28;20059;-74
2022/08/29 11:29:29;;;;;;;5.00;2.03;;;;;;;;;;5100906;28;20029;-73
2022/08/29 11:32:11;;;;;;;4.50;2.00;;;;;;;;;;5096016;28;20068;-74
2022/08/29 11:34:39;;;;;;;4.35;1.88;;;;;;;;;;5103836;28;20075;-74
2022/08/29 11:37:17;;;;;;;6.72;2.10;;;;;;;;;;5100740;28;20052;-75
2022/08/29 11:39:49;;;;;;;5.53;2.20;;;;;;;;;;5105418;28;20048;-72
2022/08/29 11:42:22;;;;;;;6.55;2.10;;;;;;;;;;5088424;28;20860;-73
2022/08/29 11:45:12;;;;;;;6.93;2.20;;;;;;;;;;5096441;28;20143;-74
2022/08/29 11:47:40;;;;;;;6.43;1.88;;;;;;;;;;5095073;28;20056;-73
2022/08/29 11:50:17;;;;;;;5.82;2.10;;;;;;;;;;5096490;28;20041;-72
2022/08/29 11:52:53;;;;;;;4.40;2.10;;;;;;;;;;5098348;28;20502;-73
2022/08/29 11:55:29;;;;;;;5.03;2.00;;;;;;;;;;5099756;28;20049;-75
2022/08/29 11:58:06;;;;;;;7.97;2.25;;;;;;;;;;5090877;28;20041;-73
2022/08/29 12:00:40;;;;;;;2.75;1.63;;;;;;;;;;5095187;28;20045;-73
2022/08/29 12:03:26;;;;;;;5.28;2.08;;;;;;;;;;5098137;28;20075;-74
2022/08/29 12:06:00;;;;;;;8.98;2.00;;;;;;;;;;5092173;28;21085;-73
2022/08/29 12:08:31;;;;;;;6.47;1.95;;;;;;;;;;5102355;28;20942;-73
2022/08/29 12:11:04;;;;;;;6.32;2.28;;;;;;;;;;5098183;28;20040;-73
2022/08/29 12:13:46;;;;;;;4.53;1.85;;;;;;;;;;5099048;28;20084;-73
2022/08/29 12:16:16;;;;;;;8.05;2.15;;;;;;;;;;5095210;28;20094;-74
2022/08/29 12:18:43;;;;;;;4.68;1.90;;;;;;;;;;5082441;28;20048;-75
2022/08/29 12:21:29;;;;;;;4.60;1.70;;;;;;;;;;5095013;28;20939;-74
2022/08/29 12:23:56;;;;;;;4.45;2.03;;;;;;;;;;5091634;28;20036;-73
2022/08/29 12:26:43;;;;;;;4.32;1.80;;;;;;;;;;5097263;28;20041;-74
2022/08/29 12:29:32;;;;;;;6.93;1.90;;;;;;;;;;5080195;28;20053;-74
2022/08/29 12:32:26;;;;;;;5.28;1.95;;;;;;;;;;5104795;28;20063;-74
2022/08/29 12:35:11;;;;;;;4.25;1.92;;;;;;;;;;5094394;28;20924;-77
2022/08/29 12:37:44;;;;;;;7.07;2.22;;;;;;;;;;5101652;28;20048;-74
2022/08/29 12:40:33;;;;;;;5.70;1.98;;;;;;;;;;5097055;28;20048;-73
2022/08/29 12:43:14;;;;;;;3.92;1.83;;;;;;;;;;5098371;28;20051;-72
2022/08/29 12:45:42;;;;;;;7.35;1.95;;;;;;;;;;5101386;28;20033;-74
2022/08/29 12:48:31;;;;;;;3.38;1.80;;;;;;;;;;5094738;28;20048;-73
2022/08/29 12:50:59;;;;;;;5.72;2.33;;;;;;;;;;5094219;28;20398;-73
2022/08/29 12:53:35;;;;;;;8.80;1.98;;;;;;;;;;5098209;28;20086;-73
2022/08/29 12:56:03;;;;;;;4.72;1.70;;;;;;;;;;5098486;28;20069;-72
2022/08/29 12:58:34;;;;;;;4.05;2.00;;;;;;;;;;5096101;28;20080;-73
2022/08/29 13:01:02;;;;;;;7.85;2.00;;;;;;;;;;5094197;28;20058;-74
2022/08/29 13:03:30;;;;;;;6.45;2.15;;;;;;;;;;5091398;28;20063;-74
2022/08/29 13:06:09;;;;;;;3.55;1.50;;;;;;;;;;5092009;28;20388;-73
2022/08/29 13:08:36;;;;;;;4.72;1.88;;;;;;;;;;5083702;28;20148;-73
2022/08/29 13:11:08;;;;;;;7.03;2.15;;;;;;;;;;5098562;28;20048;-73
2022/08/29 13:13:36;;;;;;;3.85;1.98;;;;;;;;;;5090932;28;20045;-72
2022/08/29 13:16:07;;;;;;;8.13;1.98;;;;;;;;;;5087031;28;20114;-73
2022/08/29 13:18:35;;;;;;;7.70;2.00;;;;;;;;;;5097186;28;20112;-72
2022/08/29 13:21:30;;;;;;;4.30;1.80;;;;;;;;;;5096563;28;20354;-73
2022/08/29 13:24:03;;;;;;;7.00;1.92;;;;;;;;;;5094147;28;20037;-75
2022/08/29 13:26:32;;;;;;;5.68;2.05;;;;;;;;;;5080939;28;20110;-73
2022/08/29 13:29:13;;;;;;;7.53;2.00;;;;;;;;;;5097007;28;20079;-73
2022/08/29 13:31:43;;;;;;;6.13;2.00;;;;;;;;;;5096835;28;20048;-73
2022/08/29 13:34:16;;;;;;;4.50;1.77;;;;;;;;;;5094507;28;20080;-76
2022/08/29 13:36:49;;;;;;;7.68;2.25;;;;;;;;;;5093630;28;20056;-73
2022/08/29 13:39:17;;;;;;;5.20;1.88;;;;;;;;;;5090483;28;20052;-73
2022/08/29 13:42:05;;;;;;;4.70;2.30;;;;;;;;;;5103245;28;20052;-73
2022/08/29 13:44:40;;;;;;;7.20;1.80;;;;;;;;;;5098561;28;20055;-72
2022/08/29 13:47:24;;;;;;;4.90;2.28;;;;;;;;;;5098461;28;20044;-73
2022/08/29 13:49:55;;;;;;;4.22;1.85;;;;;;;;;;5099707;28;20045;-77
2022/08/29 13:52:23;;;;;;;8.95;1.90;;;;;;;;;;5100635;28;20113;-74
2022/08/29 13:54:57;;;;;;;3.42;1.90;;;;;;;;;;5102166;28;20040;-74
2022/08/29 13:57:27;;;;;;;5.72;2.05;;;;;;;;;;5094382;28;20143;-72
2022/08/29 13:59:55;;;;;;;4.00;1.80;;;;;;;;;;5092330;28;20136;-72
2022/08/29 14:02:25;;;;;;;5.50;2.00;;;;;;;;;;5084755;28;20103;-74
2022/08/29 14:04:53;;;;;;;7.22;1.95;;;;;;;;;;5095618;28;20048;-73
2022/08/29 14:07:24;;;;;;;8.85;2.00;;;;;;;;;;5090868;28;20052;-73
2022/08/29 14:09:52;;;;;;;5.45;2.00;;;;;;;;;;5093243;28;20182;-74
2022/08/29 14:12:19;;;;;;;6.85;2.10;;;;;;;;;;5091914;28;20045;-73
2022/08/29 14:15:00;;;;;;;6.70;2.00;;;;;;;;;;5092079;28;20124;-72
2022/08/29 14:17:34;;;;;;;5.10;2.00;;;;;;;;;;5097837;28;20112;-73
2022/08/29 14:20:04;;;;;;;9.30;1.88;;;;;;;;;;5097525;28;20143;-74
2022/08/29 14:22:34;;;;;;;4.35;1.80;;;;;;;;;;5081796;28;20099;-74
2022/08/29 14:25:02;;;;;;;16.58;2.13;;;;;;;;;;5093783;28;20048;-73
2022/08/29 14:27:29;;;;;;;9.52;2.00;;;;;;;;;;5100545;28;20053;-74
2022/08/29 14:29:56;;;;;;;4.85;2.25;;;;;;;;;;5086702;28;20064;-73
2022/08/29 14:32:24;;;;;;;6.05;1.90;;;;;;;;;;5096177;28;20041;-73
2022/08/29 14:34:53;;;;;;;4.55;1.90;;;;;;;;;;5099918;28;20057;-72
2022/08/29 14:37:23;;;;;;;4.30;1.67;;;;;;;;;;5099924;28;20067;-74
2022/08/29 14:39:54;;;;;;;6.30;1.95;;;;;;;;;;5092932;28;20139;-72
2022/08/29 14:42:24;;;;;;;6.70;2.10;;;;;;;;;;5102660;28;20049;-74
2022/08/29 14:44:51;;;;;;;6.90;2.08;;;;;;;;;;5097141;28;20064;-72
2022/08/29 14:47:18;;;;;;;5.80;2.00;;;;;;;;;;5086784;28;20040;-73
2022/08/29 14:49:46;;;;;;;5.63;2.00;;;;;;;;;;5098897;28;20064;-74
2022/08/29 14:52:13;;;;;;;4.30;2.20;;;;;;;;;;5091426;28;20095;-75
2022/08/29 14:54:42;;;;;;;8.45;1.98;;;;;;;;;;5102293;28;20053;-76
2022/08/29 14:57:09;;;;;;;4.32;2.00;;;;;;;;;;5111758;28;20053;-75
2022/08/29 14:59:38;;;;;;;5.43;2.00;;;;;;;;;;5110233;28;20984;-76
2022/08/29 15:02:07;;;;;;;6.22;1.88;;;;;;;;;;5108393;28;20022;-75
2022/08/29 15:04:34;;;;;;;6.38;1.80;;;;;;;;;;5105498;28;20043;-76
2022/08/29 15:07:08;;;;;;;6.70;1.80;;;;;;;;;;5111775;28;20035;-76
2022/08/29 15:09:35;;;;;;;3.83;1.85;;;;;;;;;;5102765;28;20036;-76
2022/08/29 15:12:03;;;;;;;3.13;1.70;;;;;;;;;;5104241;28;20021;-76